Avant, OK

1:11 AM CDT on September 22, 2014 (GMT -0500)
BuschFarm | Change Station
CLOSE
Current Station
Personal Weather Station
Location: Skiatook, OK
Elevation: 709 ft
Nearby Weather Stations

Elev 709 ft 36.41 °N, 96.01 °W | Updated 11 minutes ago

Clear
Clear
55.8 °F
Feels Like 55.8 °F
N
1.6
Wind Variable Wind from West

Today
High -- | Low -- °F
--% Chance of Precip.
Yesterday
High -- | Low -- °F
Precip. -- in
7:12 AM 7:21 PM
Waning Crescent, 4% visible
Pressure 30.22 in
Visibility 10.0 miles
Clouds Clear
Dew Point 53 °F
Humidity 89%
Rainfall 0.00 in
Snow Depth Not available.
UV 0 out of 12
Pollen 10.30 out of 12
Air Quality Not available.
Flu Activity Not available.
METAR KBVO 220553Z AUTO 01005KT 10SM CLR 15/11 A3024 RMK AO2 SLP231 T01500106 10206 20133 402780133 51012

More Conditions Fewer Conditions

Pressure 30.22 in
Visibility 10.0 miles
Clouds Clear
Dew Point 53 °F
Humidity 89%
Rainfall 0.00 in
Snow Depth Not available.
UV 0 out of 12
Pollen 10.30 out of 12
Air Quality Not available.
Flu Activity Not available.
METAR KBVO 220553Z AUTO 01005KT 10SM CLR 15/11 A3024 RMK AO2 SLP231 T01500106 10206 20133 402780133 51012

More Conditions Fewer Conditions

10-Day Weather Forecast

Almanac

Astronomy

Sep. 22, 2014 Rise Set
Actual Time 7:12 AM CDT 7:21 PM CDT
Civil Twilight 6:46 AM CDT 7:46 PM CDT
Nautical Twilight 6:16 AM CDT 8:16 PM CDT
Astronomical Twilight 5:45 AM CDT 8:47 PM CDT
Moon 5:43 AM CDT 6:28 PM CDT
Length of Visible Light 13h 00m
Length of Day
12h 08m
Tomorrow will be 2m 18s shorter.
Waning Crescent, 4% of the Moon is Illuminated
Today
Waning Crescent
Sep 24
New
Oct 1
First Quarter
Oct 8
Full
Oct 15
Last Quarter

Today's Extremes

State Highs State Lows

Community

WunderPhotos

Upload Photos

1,755,392 photos uploaded!

Nearby

Air Quality

  Air Quality AQ Index Pollutant
Yesterday Good
OZONE
Sunday Good
PM2.5
Sunday Good
OZONE
Monday Good
OZONE
Monday Good
PM2.5
Tuesday Good
OZONE
Tuesday Good
PM2.5
Wednesday Good
OZONE
Wednesday Good
PM2.5

Snow Depth

Station Depth Elevation
No new snow has been reported.

Earthquake Activity

City Distance Mag. Time & Date
Medford, Oklahoma 95 miles 3.2 2:10 AM CDT
2014-09-20
Luther, Oklahoma 81 miles 2.7 4:47 PM CDT
2014-09-19
Guthrie, Oklahoma 88 miles 3.6 12:23 PM CDT
2014-09-19
Jones, Oklahoma 92 miles 2.8 1:13 AM CDT
2014-09-19
Minimum magnitude displayed is 2.5.

Coastal Water Temperatures

Place Temperature
No Stations Reporting

Nearby Weather Stations